Eland, WI

9:32 PM CDT on July 23, 2014 (GMT -0500)
Wittenberg Wi. (KWIWITTE2) Elev 1191 ft | 44.83 °N, 89.17 °W | Change Station

Current weather conditions updated 11 seconds ago

Partly Cloudy
Partly Cloudy
61.0 °F
Feels Like 61.0 °F
N
0.0
Wind Variable Wind from SE
Gusts 0.0 mph

Tomorrow is forecast to be nearly the same temperature as today.

Today
High -- | Low -- °F
--% Chance of Precip.
Yesterday
High -- | Low -- °F
Precip. -- in
5:33 AM 8:33 PM
Waning Crescent, 7% visible
Pressure 30.16 in
Visibility 10.0 miles
Clouds Clear
Dew Point 58 °F
Humidity 90%
Rainfall 0.00 in
Snow Depth Not available.
UV 0 out of 12
Pollen 6.10 out of 12
Air Quality Not available.
Flu Activity Not available.
METAR KAUW 240154Z AUTO 02003KT 10SM CLR 21/12 A3016 RMK AO2 SLP212 T02060117

More Conditions Fewer Conditions

Pressure 30.16 in
Visibility 10.0 miles
Clouds Clear
Dew Point 58 °F
Humidity 90%
Rainfall 0.00 in
Snow Depth Not available.
UV 0 out of 12
Pollen 6.10 out of 12
Air Quality Not available.
Flu Activity Not available.
METAR KAUW 240154Z AUTO 02003KT 10SM CLR 21/12 A3016 RMK AO2 SLP212 T02060117

More Conditions Fewer Conditions

10-Day Weather Forecast

Almanac

Astronomy

Jul. 23, 2014 Rise Set
Actual Time 5:33 AM CDT 8:33 PM CDT
Civil Twilight 4:58 AM CDT 9:07 PM CDT
Nautical Twilight 4:13 AM CDT 9:52 PM CDT
Astronomical Twilight 3:20 AM CDT 10:45 PM CDT
Moon 2:53 AM CDT (7/23) 6:01 PM CDT (7/23)
Length of Visible Light 16h 09m
Length of Day
15h 00m
Tomorrow will be 2m 4s shorter.
Waning Crescent, 7% of the Moon is Illuminated
Today
Waning Crescent
Jul 26
New
Aug 3
First Quarter
Aug 10
Full
Aug 17
Last Quarter

Today's Extremes

State Highs State Lows

Community

WunderPhotos

Upload Photos

1,736,863 photos uploaded!

Nearby

Snow Depth

Station Depth Elevation
No new snow has been reported.

Earthquake Activity

City Distance Mag. Time & Date
No recent earthquake activity has been reported nearby.
Minimum magnitude displayed is 2.5.

Coastal Water Temperatures

Place Temperature
No Stations Reporting

Nearby Weather Stations

Station Location Temp. Dew Point Humidity Wind Precip. Elev Updated Type
Wittenberg Wi., Wittenberg, WI 61.0 °F 58 °F 90% SE  at  0.0 mph 0.00 in / hr 1191 ft 9:32 PM CDT Rapid Fire
Knopf's House, Weston, WI 61.0 °F 54 °F 77% ENE  at  0.0 mph - / hr 1214 ft 9:31 PM CDT Normal
Corks Repair, Iola, WI 63.0 °F 63 °F 100% NNE  at  0.0 mph 0.00 in / hr 1050 ft 9:32 PM CDT Rapid Fire
Hawthorn Hills Elementary School, Wausau, WI 59.3 °F 55 °F 87% North  at  0.0 mph 0.00 in / hr 1201 ft 9:32 PM CDT Rapid Fire
6 White Pillars, Wausau, WI 61.4 °F 55 °F 80% North  at  1.0 mph 0.00 in / hr 1381 ft 9:32 PM CDT Normal
WB9GBG, Iola, WI 65.7 °F 57 °F 73% North  at  0.0 mph 0.00 in / hr 1027 ft 10:32 PM EDT Normal
WIDOT Stevens Point - I-39 @ STH 66, Stevens Point, WI 70 °F 45 °F 41% SW  at  0 mph 0.00 in / hr 1100 ft 8:20 PM CDT MADIS

Show More Stations Show Fewer Stations